West Yellowstone, MT

8:38 PM MDT on March 26, 2015 (GMT -0600)
Lower Beartrap | | Change Station
CLOSE
Current Station
Personal Weather Station
Location: West Yellowstone, MT
Elevation: 6565 ft
Nearby Weather Stations

Elev 6565 ft 44.79 °N, 111.14 °W | Updated 8 minutes ago

Partly Cloudy
Partly Cloudy
38.3 °F
Feels Like 35 °F
N
4.5
Wind Variable Wind from North
Gusts 5.4 mph

Today
High -- | Low -- °F
--% Chance of Precip.
Yesterday
High -- | Low -- °F
Precip. -- in
7:16 AM 7:44 PM
Waxing Crescent, 48% visible
Pressure 30.40 in
Visibility -9999.0 miles
Clouds
Windchill 35 °F
Dew Point 31 °F
Humidity 75%
Rainfall 0.00 in
Snow Depth Not available.
UV Not available.
Pollen 5.80 out of 12
Air Quality Not available.
Flu Activity Not available.
METAR KP60 270156Z AUTO 00000KT 03/M01 A3038 RMK AO1 SLP293 T00281011

More Conditions Fewer Conditions

Pressure 30.40 in
Visibility -9999.0 miles
Clouds
Windchill 35 °F
Dew Point 31 °F
Humidity 75%
Rainfall 0.00 in
Snow Depth Not available.
UV Not available.
Pollen 5.80 out of 12
Air Quality Not available.
Flu Activity Not available.
METAR KP60 270156Z AUTO 00000KT 03/M01 A3038 RMK AO1 SLP293 T00281011

More Conditions Fewer Conditions

10-Day Weather Forecast

Almanac

Astronomy

Mar. 26, 2015 Rise Set
Actual Time
Civil Twilight
Nautical Twilight
Astronomical Twilight
Moon
Length of Visible Light
Length of Day
Tomorrow will be .
, % of the Moon is Illuminated

Today's Extremes

State Highs State Lows

Community

WunderPhotos

Upload Photos

1,808,689 photos uploaded!

WunderBlogs® & News

Nearby

Air Quality

  Air Quality AQ Index Pollutant
Not available.

Snow Depth

Station Depth Elevation

Earthquake Activity

City Distance Mag. Time & Date
Minimum magnitude displayed is 2.5.

Coastal Water Temperatures

Place Temperature

Stations

Nearby Weather Stations

Station Location Temp. Windchill Dew Point Humidity Wind Precip. Elev Updated Type